Time;durP1;ratioP1;P1;durP2;ratioP2;P2;SDS_P1;SDS_P2;PMS_P1;PMS_P2;Temp;Humidity;BMP_temperature;BMP_pressure;BME280_temperature;BME280_humidity;BME280_pressure;Samples;Min_cycle;Max_cycle;Signal;HPM_P1;HPM_P2
2023/04/23 00:00:48;;;;;;;3.50;2.78;;;14.90;64.70;;;17.80;44.54;96961.19;5059361;28;20048;-44
2023/04/23 00:03:18;;;;;;;3.97;2.65;;;14.90;64.70;;;17.79;44.70;96965.75;5059067;28;20037;-45
2023/04/23 00:05:46;;;;;;;3.08;2.42;;;14.90;65.00;;;17.80;44.62;96970.09;5061350;28;20040;-43
2023/04/23 00:08:16;;;;;;;6.65;2.97;;;14.80;65.00;;;17.73;44.93;96966.66;5060674;28;20040;-44
2023/04/23 00:10:44;;;;;;;3.53;2.47;;;14.80;64.90;;;17.75;44.59;96963.72;5058306;28;20067;-44
2023/04/23 00:13:12;;;;;;;4.30;2.85;;;14.80;64.80;;;17.75;44.63;96974.50;5058721;28;20045;-44
2023/04/23 00:15:40;;;;;;;4.25;2.40;;;14.80;64.70;;;17.75;44.71;96967.25;5060586;28;20033;-44
2023/04/23 00:18:08;;;;;;;3.25;2.72;;;14.80;64.80;;;17.73;44.58;96969.34;5062966;28;20399;-44
2023/04/23 00:20:35;;;;;;;4.95;2.80;;;14.80;64.90;;;17.73;44.72;96965.81;5059494;28;20049;-44
2023/04/23 00:23:03;;;;;;;5.40;2.58;;;14.90;65.00;;;17.70;44.64;96965.22;5059036;28;20037;-45
2023/04/23 00:25:31;;;;;;;4.78;2.90;;;14.80;64.80;;;17.70;44.52;96975.19;5058866;28;20041;-45
2023/04/23 00:27:58;;;;;;;5.07;2.72;;;14.70;65.10;;;17.64;44.80;96989.50;5062518;28;20036;-44
2023/04/23 00:30:26;;;;;;;4.97;2.60;;;14.70;65.60;;;17.32;45.81;96992.28;5060488;28;20041;-44
2023/04/23 00:32:54;;;;;;;4.07;2.83;;;14.40;68.70;;;17.18;46.51;96983.50;5059007;28;20045;-46
2023/04/23 00:35:22;;;;;;;4.20;2.42;;;14.20;69.70;;;17.24;46.35;96996.06;5040635;28;20071;-45
2023/04/23 00:37:49;;;;;;;4.35;3.20;;;14.10;70.40;;;17.24;46.64;96997.94;5060574;28;20528;-44
2023/04/23 00:40:17;;;;;;;6.22;3.67;;;14.10;72.10;;;17.12;47.22;96995.97;5062135;28;20490;-44
2023/04/23 00:42:45;;;;;;;3.83;2.70;;;14.00;72.30;;;17.09;47.49;97000.94;5057778;28;20061;-44
2023/04/23 00:45:12;;;;;;;5.28;3.40;;;13.90;73.20;;;17.06;47.72;97004.91;5056682;28;20059;-44
2023/04/23 00:47:40;;;;;;;4.68;3.15;;;13.90;74.30;;;17.01;47.82;97009.28;5058023;28;20057;-44
2023/04/23 00:50:08;;;;;;;6.13;3.70;;;13.80;74.10;;;16.99;48.00;97012.19;5062371;28;20067;-44
2023/04/23 00:52:38;;;;;;;4.60;3.42;;;13.80;74.50;;;17.05;47.99;97015.88;5060566;28;20036;-44
2023/04/23 00:55:07;;;;;;;5.43;2.95;;;13.90;75.00;;;17.02;48.19;97019.84;5056597;28;20049;-44
2023/04/23 00:57:36;;;;;;;3.35;2.63;;;13.90;75.10;;;16.96;48.56;97026.06;5059771;28;20111;-44
2023/04/23 01:00:06;;;;;;;8.82;4.03;;;13.80;76.70;;;16.96;48.55;97018.00;5062261;28;20044;-44
2023/04/23 01:02:36;;;;;;;5.47;3.47;;;13.80;76.40;;;16.93;48.53;97023.81;5059818;28;20064;-44
2023/04/23 01:05:06;;;;;;;5.70;3.40;;;13.80;75.70;;;16.90;48.85;97021.56;5054492;28;20041;-45
2023/04/23 01:07:35;;;;;;;8.20;4.28;;;13.80;76.40;;;16.80;49.33;97029.25;5058314;28;20045;-44
2023/04/23 01:10:04;;;;;;;4.82;4.03;;;13.80;77.10;;;16.85;49.64;97027.59;5060870;28;20052;-44
2023/04/23 01:12:32;;;;;;;4.78;3.75;;;13.80;77.40;;;16.91;49.78;97024.03;5060881;28;20044;-44
2023/04/23 01:15:01;;;;;;;8.10;3.72;;;13.90;77.60;;;16.94;49.38;97022.75;5058564;28;20498;-44
2023/04/23 01:17:28;;;;;;;6.53;4.07;;;13.90;77.90;;;16.96;49.69;97019.84;5031950;28;20048;-44
2023/04/23 01:19:56;;;;;;;4.57;3.63;;;14.00;77.80;;;16.92;49.77;97022.16;5061671;28;20417;-45
2023/04/23 01:22:24;;;;;;;4.20;3.05;;;13.90;78.30;;;16.97;49.62;97018.84;5060858;28;20051;-42
2023/04/23 01:24:52;;;;;;;7.20;3.63;;;14.00;78.20;;;16.95;49.93;97008.28;5061958;28;20037;-43
2023/04/23 01:27:21;;;;;;;5.32;3.17;;;13.90;78.50;;;16.95;49.93;97024.44;5060800;28;20414;-45
2023/04/23 01:29:48;;;;;;;4.32;3.50;;;13.90;78.80;;;16.90;50.04;97024.25;5063778;28;20053;-43
2023/04/23 01:32:18;;;;;;;4.80;3.35;;;13.90;79.00;;;16.89;50.10;97023.41;5064442;28;20497;-43
2023/04/23 01:34:47;;;;;;;5.10;3.78;;;13.90;79.20;;;16.87;50.10;97022.00;5044968;28;20056;-43
2023/04/23 01:37:16;;;;;;;5.43;3.80;;;13.80;79.20;;;16.87;50.14;97020.13;5060077;28;20445;-43
2023/04/23 01:39:43;;;;;;;5.47;4.22;;;13.80;79.50;;;16.87;50.23;97020.13;5062234;28;20057;-43
2023/04/23 01:42:11;;;;;;;5.47;3.58;;;13.80;79.60;;;16.84;50.29;97019.72;5065213;28;20111;-43
2023/04/23 01:44:39;;;;;;;5.15;3.40;;;13.70;80.20;;;16.84;50.02;97023.22;5045430;28;20159;-43
2023/04/23 01:47:07;;;;;;;4.32;3.17;;;13.80;80.00;;;16.84;50.37;97025.94;5060559;28;20049;-43
2023/04/23 01:49:35;;;;;;;4.35;3.15;;;13.70;80.70;;;16.83;50.15;97024.28;5061013;28;20502;-43
2023/04/23 01:52:03;;;;;;;6.15;3.28;;;13.80;79.70;;;16.80;50.31;97032.75;5063082;28;20051;-43
2023/04/23 01:54:30;;;;;;;4.65;3.65;;;13.70;79.90;;;16.79;50.07;97025.75;5063000;28;20517;-43
2023/04/23 01:56:58;;;;;;;5.20;3.05;;;13.70;79.80;;;16.79;50.12;97028.41;5059789;28;20056;-43
2023/04/23 01:59:26;;;;;;;4.25;2.60;;;13.80;79.80;;;16.68;50.78;97034.47;5056809;28;20050;-43
2023/04/23 02:01:53;;;;;;;4.65;2.88;;;13.70;79.90;;;16.72;50.37;97039.19;5064530;28;20036;-43
2023/04/23 02:04:21;;;;;;;3.67;3.03;;;13.60;80.00;;;16.71;50.23;97032.19;5062544;28;20134;-43
2023/04/23 02:06:51;;;;;;;3.95;2.63;;;13.70;80.20;;;16.72;50.66;97031.13;5060404;28;20048;-43
2023/04/23 02:09:19;;;;;;;6.38;3.17;;;13.70;80.50;;;16.74;50.55;97039.81;5060650;28;20045;-42
2023/04/23 02:11:46;;;;;;;4.68;3.00;;;13.70;80.20;;;16.73;50.59;97043.53;5061989;28;20056;-47
2023/04/23 02:14:16;;;;;;;4.28;3.17;;;13.70;80.60;;;16.73;50.63;97045.41;5064945;28;20040;-46
2023/04/23 02:16:44;;;;;;;3.13;2.63;;;13.70;80.70;;;16.73;50.71;97046.22;5062321;28;20040;-45
2023/04/23 02:19:11;;;;;;;2.85;2.20;;;13.60;80.80;;;16.70;50.62;97046.66;5059479;28;20052;-43
2023/04/23 02:21:42;;;;;;;7.15;3.10;;;13.70;81.00;;;16.66;50.91;97040.06;5062426;28;20494;-44
2023/04/23 02:24:10;;;;;;;5.47;2.88;;;13.60;81.20;;;16.66;50.72;97045.44;5064345;28;20040;-46
2023/04/23 02:26:38;;;;;;;3.92;3.08;;;13.60;81.50;;;16.66;50.74;97050.81;5063214;28;20044;-46
2023/04/23 02:29:05;;;;;;;4.05;2.45;;;13.60;81.30;;;16.65;50.75;97042.94;5060966;28;20033;-44
2023/04/23 02:31:33;;;;;;;3.80;2.70;;;13.60;81.30;;;16.64;50.73;97044.00;5059540;28;20048;-43
2023/04/23 02:34:00;;;;;;;4.60;3.08;;;13.50;81.30;;;16.61;50.81;97042.56;5063609;28;20055;-43
2023/04/23 02:36:29;;;;;;;3.10;2.25;;;13.50;81.20;;;16.59;50.85;97044.63;5063516;28;20498;-44
2023/04/23 02:38:57;;;;;;;3.00;2.45;;;13.50;81.30;;;16.60;50.79;97040.91;5058636;28;20521;-43
2023/04/23 02:41:24;;;;;;;4.28;2.17;;;13.50;81.40;;;16.59;51.00;97038.44;5060714;28;20045;-43
2023/04/23 02:43:52;;;;;;;4.22;2.53;;;13.50;81.50;;;16.59;51.11;97033.88;5061588;28;20537;-43
2023/04/23 02:46:20;;;;;;;3.53;1.52;;;13.60;81.20;;;16.61;50.60;97031.81;5064067;28;20390;-43
2023/04/23 02:48:47;;;;;;;4.63;2.03;;;13.60;80.40;;;16.61;50.71;97037.19;5061646;28;20048;-43
2023/04/23 02:51:15;;;;;;;2.78;1.85;;;13.60;80.10;;;16.60;50.30;97038.25;5059072;28;20041;-43
2023/04/23 02:53:43;;;;;;;2.92;1.80;;;13.60;79.90;;;16.58;50.56;97037.63;5060058;28;20045;-42
2023/04/23 02:56:10;;;;;;;2.33;1.77;;;13.60;79.80;;;16.58;50.58;97034.13;5061486;28;20505;-43
2023/04/23 02:58:38;;;;;;;2.28;1.52;;;13.60;80.50;;;16.59;50.53;97035.75;5061413;28;20075;-42
2023/04/23 03:01:06;;;;;;;1.88;1.60;;;13.50;80.10;;;16.56;50.44;97026.28;5058964;28;20053;-44
2023/04/23 03:03:33;;;;;;;2.45;1.75;;;13.50;79.90;;;16.57;50.65;97027.09;5058364;28;20060;-43
2023/04/23 03:06:05;;;;;;;6.72;2.10;;;13.50;80.10;;;16.56;50.39;97028.97;5063303;28;20037;-43
2023/04/23 03:08:33;;;;;;;2.55;1.80;;;13.50;80.00;;;16.55;50.37;97016.53;5061267;28;20052;-42
2023/04/23 03:11:00;;;;;;;3.33;1.52;;;13.50;80.00;;;16.53;50.59;97016.75;5052295;28;20043;-43
2023/04/23 03:13:28;;;;;;;2.20;1.75;;;13.50;80.00;;;16.52;50.69;97019.69;5058637;28;20052;-42
2023/04/23 03:15:56;;;;;;;2.28;2.08;;;13.50;80.00;;;16.52;50.53;97020.50;5062398;28;20029;-43
2023/04/23 03:18:25;;;;;;;2.03;1.80;;;13.50;79.80;;;16.50;50.65;97030.63;5045898;28;20394;-42
2023/04/23 03:20:54;;;;;;;1.95;1.50;;;13.50;79.60;;;16.50;50.30;97029.81;5059209;28;20045;-43
2023/04/23 03:23:23;;;;;;;3.60;1.33;;;13.50;79.50;;;16.50;50.07;97027.94;5058587;28;20045;-43
2023/04/23 03:25:51;;;;;;;4.82;1.75;;;13.50;79.20;;;16.52;50.13;97036.63;5060153;28;20053;-44
2023/04/23 03:28:18;;;;;;;1.55;1.45;;;13.50;78.40;;;16.53;50.11;97032.06;5045152;28;20541;-43
2023/04/23 03:30:46;;;;;;;1.80;1.42;;;13.50;78.10;;;16.54;49.61;97031.84;5059610;28;20056;-44
2023/04/23 03:33:14;;;;;;;3.28;1.77;;;13.50;77.80;;;16.54;49.62;97037.22;5059764;28;20045;-43
2023/04/23 03:35:41;;;;;;;2.70;2.13;;;13.50;77.60;;;16.56;49.80;97039.69;5058818;28;20513;-44
2023/04/23 03:38:14;;;;;;;2.80;2.40;;;13.50;77.60;;;16.53;49.85;97035.56;5062988;28;20033;-44
2023/04/23 03:40:42;;;;;;;3.20;2.60;;;13.50;77.90;;;16.54;49.91;97039.91;5060646;28;20044;-45
2023/04/23 03:43:11;;;;;;;4.10;3.22;;;13.50;78.10;;;16.55;49.83;97032.66;5057907;28;20037;-44
2023/04/23 03:46:01;;;;;;;6.03;3.85;;;13.50;78.10;;;16.54;49.84;97036.41;5057964;28;20533;-44
2023/04/23 03:48:32;;;;;;;4.47;3.30;;;13.50;78.40;;;16.52;49.91;97030.44;5057689;28;20453;-44
2023/04/23 03:51:04;;;;;;;5.53;3.63;;;13.50;78.40;;;16.49;49.85;97038.91;5058120;28;20426;-44
2023/04/23 03:53:57;;;;;;;4.83;2.30;;;13.40;79.10;;;16.43;49.83;97031.69;5058141;28;20048;-44
2023/04/23 03:56:27;;;;;;;1.80;1.70;;;13.40;77.70;;;16.37;49.94;97029.88;5062827;28;20294;-44
2023/04/23 03:59:27;;;;;;;2.53;1.90;;;13.30;77.50;;;16.37;49.75;97040.63;5055346;28;20032;-46
2023/04/23 04:01:58;;;;;;;2.45;2.00;;;13.40;77.70;;;16.33;49.77;97038.34;5060061;28;20043;-43
2023/04/23 04:04:27;;;;;;;2.03;1.63;;;13.30;77.80;;;16.30;50.06;97035.25;5061113;28;20051;-46
2023/04/23 04:06:56;;;;;;;1.67;1.33;;;13.30;77.90;;;16.26;49.81;97034.84;5055176;28;20040;-44
2023/04/23 04:09:28;;;;;;;2.92;1.90;;;13.30;78.10;;;16.22;50.07;97041.69;5054358;28;20045;-46
2023/04/23 04:12:00;;;;;;;1.77;1.38;;;13.20;78.10;;;16.22;49.90;97039.00;5060541;28;20041;-43
2023/04/23 04:14:28;;;;;;;2.40;1.55;;;13.30;77.70;;;16.20;49.92;97037.56;5060875;28;20045;-45
2023/04/23 04:16:56;;;;;;;2.95;1.60;;;13.20;77.70;;;16.15;49.87;97038.22;5059522;28;20045;-44
2023/04/23 04:19:23;;;;;;;2.05;1.73;;;13.20;77.80;;;16.12;50.13;97039.44;5059145;28;20052;-44
2023/04/23 04:21:51;;;;;;;1.90;1.50;;;13.10;77.90;;;16.10;49.95;97038.81;5061019;28;20044;-43
2023/04/23 04:24:18;;;;;;;1.50;1.23;;;13.10;78.00;;;16.07;50.28;97041.97;5061699;28;20036;-44
2023/04/23 04:26:46;;;;;;;1.77;1.20;;;13.10;78.10;;;16.07;50.16;97046.47;5060672;28;20041;-43
2023/04/23 04:29:14;;;;;;;1.45;1.15;;;13.10;77.90;;;16.06;50.12;97045.66;5059010;28;20037;-43
2023/04/23 04:31:41;;;;;;;2.33;1.17;;;13.10;77.80;;;16.03;50.22;97047.94;5059182;28;20052;-43
2023/04/23 04:34:09;;;;;;;2.33;1.50;;;13.10;77.80;;;16.05;50.11;97048.56;5061109;28;20452;-44
2023/04/23 04:36:36;;;;;;;2.10;1.17;;;13.10;77.70;;;16.01;50.18;97053.50;5061808;28;20049;-44
2023/04/23 04:39:04;;;;;;;2.85;1.50;;;13.10;77.80;;;16.04;50.29;97049.59;5062197;28;20044;-43
2023/04/23 04:41:32;;;;;;;3.88;1.27;;;13.10;78.00;;;16.06;50.18;97056.41;5062618;28;20063;-43
2023/04/23 04:43:59;;;;;;;1.35;1.25;;;13.10;77.70;;;16.05;50.10;97054.75;5059541;28;20053;-43
2023/04/23 04:46:28;;;;;;;3.40;1.13;;;13.00;77.50;;;16.03;50.01;97048.78;5058745;28;20041;-43
2023/04/23 04:48:55;;;;;;;2.08;1.13;;;13.00;77.60;;;16.05;49.81;97048.56;5061210;28;20055;-43
2023/04/23 04:51:23;;;;;;;2.38;1.67;;;13.10;77.40;;;16.07;49.89;97047.31;5062483;28;20048;-43
2023/04/23 04:53:51;;;;;;;1.33;1.23;;;13.10;77.40;;;16.07;49.87;97049.16;5060819;28;20052;-43
2023/04/23 04:56:18;;;;;;;1.67;1.30;;;13.10;77.10;;;16.07;49.87;97050.00;5058631;28;20112;-43
2023/04/23 04:58:46;;;;;;;2.47;1.85;;;13.10;76.90;;;16.08;49.85;97057.00;5061969;28;20049;-42
2023/04/23 05:01:14;;;;;;;1.85;1.20;;;13.10;76.90;;;16.08;49.87;97053.50;5066114;28;20044;-42
2023/04/23 05:03:42;;;;;;;1.38;1.10;;;13.10;76.90;;;16.11;49.69;97047.69;5065368;28;20052;-42
2023/04/23 05:06:10;;;;;;;1.27;1.17;;;13.20;76.90;;;16.12;49.75;97052.06;5062511;28;20044;-43
2023/04/23 05:08:37;;;;;;;1.30;1.20;;;13.20;76.70;;;16.13;49.77;97048.34;5061558;28;20041;-42
2023/04/23 05:11:05;;;;;;;1.65;1.27;;;13.20;76.70;;;16.00;49.88;97051.06;5065681;28;20051;-43
2023/04/23 05:13:32;;;;;;;2.10;1.30;;;13.00;77.30;;;16.01;49.96;97055.38;5065673;28;20045;-42
2023/04/23 05:16:00;;;;;;;1.70;1.15;;;12.90;77.90;;;16.00;49.95;97046.50;5060947;28;20060;-42
2023/04/23 05:18:28;;;;;;;1.80;1.20;;;12.90;78.30;;;15.90;50.29;97055.00;5062386;28;20272;-43
2023/04/23 05:20:55;;;;;;;2.85;1.55;;;12.80;78.50;;;15.93;50.44;97048.38;5064191;28;20049;-43
2023/04/23 05:23:23;;;;;;;1.50;1.40;;;12.80;79.20;;;15.97;50.36;97057.66;5065754;28;20041;-44
2023/04/23 05:25:54;;;;;;;1.60;1.40;;;12.90;79.20;;;15.98;50.48;97053.94;5063675;28;20048;-44
2023/04/23 05:28:22;;;;;;;1.30;1.08;;;12.90;79.30;;;15.98;50.31;97048.56;5062288;28;20398;-43
2023/04/23 05:30:50;;;;;;;2.10;1.80;;;12.90;79.40;;;16.02;50.28;97046.31;5063352;28;20053;-44
2023/04/23 05:33:18;;;;;;;2.60;2.00;;;12.90;79.30;;;16.04;50.32;97041.53;5064137;28;20043;-44
2023/04/23 05:35:45;;;;;;;1.95;1.45;;;12.90;79.50;;;16.05;50.35;97044.03;5064436;28;20052;-43
2023/04/23 05:38:13;;;;;;;1.98;1.45;;;12.90;79.50;;;16.09;50.32;97057.84;5061952;28;20037;-43
2023/04/23 05:40:40;;;;;;;2.25;1.50;;;12.90;79.50;;;16.14;50.36;97049.97;5061929;28;20063;-45
2023/04/23 05:43:08;;;;;;;1.80;1.50;;;13.00;79.20;;;16.16;50.29;97064.00;5053804;28;20048;-44
2023/04/23 05:45:36;;;;;;;1.85;1.52;;;13.10;79.00;;;16.19;50.13;97060.06;5061358;28;20045;-44
2023/04/23 05:48:03;;;;;;;2.45;1.40;;;13.10;79.10;;;16.21;50.29;97058.03;5064414;28;20060;-43
2023/04/23 05:50:43;;;;;;;1.92;1.50;;;13.10;78.80;;;16.24;50.23;97063.78;5064473;28;20421;-56
2023/04/23 05:53:34;;;;;;;1.45;1.00;;;13.10;78.80;;;16.29;49.97;97060.47;5051048;28;20552;-55
2023/04/23 05:56:02;;;;;;;1.30;1.10;;;13.20;78.40;;;16.26;50.05;97061.69;5063640;28;20055;-55
2023/04/23 05:58:30;;;;;;;1.27;1.17;;;13.20;78.20;;;16.29;50.14;97061.28;5063701;28;20429;-55
2023/04/23 06:00:57;;;;;;;1.70;1.40;;;13.20;78.30;;;16.34;49.95;97056.13;5062961;28;20057;-57
2023/04/23 06:03:25;;;;;;;1.40;1.10;;;13.30;77.90;;;16.34;49.69;97061.50;5061478;28;20099;-56
2023/04/23 06:05:53;;;;;;;2.05;1.52;;;13.20;77.70;;;16.34;49.93;97061.50;5062330;28;20498;-56
2023/04/23 06:08:21;;;;;;;1.00;0.90;;;13.30;77.70;;;16.38;49.88;97063.75;5063092;28;20045;-55
2023/04/23 06:10:51;;;;;;;1.58;1.30;;;13.40;77.50;;;16.45;49.76;97057.31;5061384;28;20052;-57
2023/04/23 06:13:19;;;;;;;1.27;1.17;;;13.40;77.00;;;16.51;49.70;97061.00;5061271;28;20195;-54
2023/04/23 06:15:47;;;;;;;2.05;0.98;;;13.40;76.70;;;16.53;49.56;97054.38;5059977;28;20529;-56
2023/04/23 06:18:14;;;;;;;0.90;0.90;;;13.50;76.50;;;16.54;49.38;97061.41;5063231;28;20048;-56
2023/04/23 06:20:42;;;;;;;2.03;1.00;;;13.50;76.10;;;16.57;49.37;97064.69;5064987;28;20497;-56
2023/04/23 06:23:11;;;;;;;2.22;1.15;;;13.50;76.30;;;16.59;49.65;97062.63;5060975;28;20037;-54
2023/04/23 06:25:39;;;;;;;2.05;1.50;;;13.50;76.30;;;16.64;49.61;97060.13;5043833;28;20071;-56
2023/04/23 06:28:06;;;;;;;2.97;2.10;;;13.60;76.30;;;16.69;49.41;97054.91;5061260;28;20521;-55
2023/04/23 06:30:43;;;;;;;2.42;1.75;;;13.70;76.30;;;16.69;49.68;97053.09;5059731;28;20049;-57
2023/04/23 06:33:12;;;;;;;0.98;0.95;;;13.70;76.10;;;16.68;49.53;97047.91;5049022;28;20052;-55
2023/04/23 06:35:39;;;;;;;1.20;1.10;;;13.70;76.00;;;16.66;49.53;97058.06;5058269;28;20044;-55
2023/04/23 06:38:07;;;;;;;1.52;0.90;;;13.80;76.10;;;16.67;49.75;97055.16;5059713;28;20094;-54
2023/04/23 06:40:34;;;;;;;1.58;0.90;;;13.70;76.10;;;16.72;49.36;97051.81;5059653;28;20053;-56
2023/04/23 06:43:04;;;;;;;1.20;0.80;;;13.80;75.70;;;16.73;49.40;97054.28;5061905;28;20539;-55
2023/04/23 06:45:55;;;;;;;1.00;0.80;;;13.80;75.30;;;16.71;49.46;97051.00;5060114;28;20075;-55
2023/04/23 06:48:22;;;;;;;0.85;0.85;;;13.80;75.20;;;16.69;49.48;97047.72;5059697;28;20048;-55
2023/04/23 06:50:50;;;;;;;2.35;1.05;;;13.80;75.40;;;16.66;49.52;97048.13;5060172;28;20041;-55
2023/04/23 06:53:17;;;;;;;1.20;1.00;;;13.80;75.50;;;16.71;49.04;97045.63;5063189;28;20036;-57
2023/04/23 06:55:45;;;;;;;1.15;1.05;;;13.80;75.00;;;16.81;49.24;97050.53;5062589;28;20040;-56
2023/04/23 06:58:12;;;;;;;1.10;0.93;;;14.00;75.20;;;16.90;49.36;97045.75;5051387;28;20068;-56
2023/04/23 07:00:42;;;;;;;1.40;1.00;;;14.10;75.20;;;16.96;48.80;97042.19;5059297;28;20119;-57
2023/04/23 07:03:10;;;;;;;1.08;0.90;;;14.20;74.30;;;16.99;49.05;97041.78;5060702;28;20060;-56
2023/04/23 07:05:38;;;;;;;1.38;1.15;;;14.20;73.70;;;17.05;49.18;97043.59;5062134;28;20050;-56
2023/04/23 07:08:05;;;;;;;1.40;1.30;;;14.30;74.20;;;17.13;49.14;97040.63;5060288;28;20036;-55
2023/04/23 07:10:33;;;;;;;1.90;1.20;;;14.30;74.20;;;17.18;49.18;97039.19;5057904;28;20059;-56
2023/04/23 07:13:00;;;;;;;1.60;1.20;;;14.30;74.40;;;17.20;49.32;97029.03;5059236;28;20528;-56
2023/04/23 07:15:28;;;;;;;1.83;1.50;;;14.40;74.80;;;17.19;49.13;97027.34;5061891;28;20045;-56
2023/04/23 07:17:56;;;;;;;1.38;1.10;;;14.40;74.40;;;17.17;49.12;97029.44;5061545;28;20051;-55
2023/04/23 07:20:23;;;;;;;2.13;1.23;;;14.40;74.10;;;17.15;49.03;97034.22;5058902;28;20045;-54
2023/04/23 07:22:51;;;;;;;1.48;1.23;;;14.40;74.00;;;17.15;49.10;97024.28;5058224;28;20045;-54
2023/04/23 07:25:21;;;;;;;1.58;1.38;;;14.40;74.40;;;17.18;49.15;97029.22;5061571;28;20042;-56
2023/04/23 07:27:48;;;;;;;1.27;1.17;;;14.30;74.40;;;17.22;49.06;97029.63;5058762;28;20045;-56
2023/04/23 07:30:16;;;;;;;3.05;1.40;;;14.30;74.60;;;17.24;49.06;97033.72;5049729;28;20051;-54
2023/04/23 07:32:44;;;;;;;1.80;1.45;;;14.30;74.50;;;17.25;49.21;97024.63;5059270;28;20056;-57
2023/04/23 07:35:11;;;;;;;3.25;1.30;;;14.30;74.70;;;17.30;49.37;97030.16;5042976;28;20048;-56
2023/04/23 07:37:39;;;;;;;2.72;1.38;;;14.40;75.20;;;17.38;49.31;97022.88;5062099;28;20417;-54
2023/04/23 07:40:08;;;;;;;2.17;1.98;;;14.50;75.10;;;17.46;49.19;97023.41;5058140;28;20056;-55
2023/04/23 07:42:35;;;;;;;2.17;1.83;;;14.60;74.80;;;17.55;48.65;97021.28;5058389;28;20041;-57
2023/04/23 07:45:04;;;;;;;2.10;1.90;;;14.70;74.00;;;17.63;48.84;97015.59;5060188;28;20068;-56
2023/04/23 07:47:32;;;;;;;2.53;2.08;;;14.80;73.80;;;17.69;48.69;97016.59;5061870;28;20067;-56
2023/04/23 07:50:00;;;;;;;3.40;1.88;;;14.80;73.80;;;17.79;48.63;97008.81;5060613;28;20048;-56
2023/04/23 07:52:27;;;;;;;4.10;2.70;;;14.90;74.00;;;17.91;48.63;97011.63;5056272;28;20053;-56
2023/04/23 07:54:55;;;;;;;1.98;1.65;;;15.00;73.70;;;18.07;47.87;97008.34;5058969;28;20288;-54
2023/04/23 07:57:23;;;;;;;4.47;2.20;;;15.20;72.30;;;18.19;47.68;97013.81;5061565;28;20044;-55
2023/04/23 07:59:50;;;;;;;3.35;1.83;;;15.40;71.00;;;18.28;47.32;97006.22;5060641;28;20417;-57
2023/04/23 08:02:22;;;;;;;2.92;1.75;;;15.50;70.40;;;18.38;47.09;97011.09;5050506;28;20491;-53
2023/04/23 08:04:50;;;;;;;2.25;1.77;;;15.60;69.70;;;18.44;46.73;97002.94;5058247;28;20469;-55
2023/04/23 08:07:18;;;;;;;3.30;1.63;;;15.60;69.10;;;18.49;46.37;96996.84;5050615;28;20045;-54
2023/04/23 08:09:45;;;;;;;2.55;1.60;;;15.70;68.60;;;18.50;46.10;97001.22;5058823;28;20049;-56
2023/04/23 08:12:16;;;;;;;1.63;1.45;;;15.70;68.10;;;18.41;46.08;96992.59;5061787;28;20056;-57
2023/04/23 08:14:46;;;;;;;2.13;1.40;;;15.50;68.40;;;18.36;46.17;96986.25;5062035;28;20048;-57
2023/04/23 08:17:16;;;;;;;2.90;1.77;;;15.40;68.60;;;18.28;45.53;96988.22;5045293;28;20057;-57
2023/04/23 08:19:43;;;;;;;3.47;1.90;;;15.20;67.50;;;18.12;45.92;96980.72;5053713;28;20302;-56
2023/04/23 08:22:12;;;;;;;1.98;1.60;;;15.10;68.30;;;18.04;46.03;96981.03;5060283;28;20041;-56
2023/04/23 08:24:40;;;;;;;1.95;1.83;;;15.10;68.30;;;17.89;46.03;96976.88;5060223;28;20402;-56
2023/04/23 08:27:07;;;;;;;1.88;1.50;;;14.90;67.40;;;17.75;45.57;96982.56;5059310;28;20040;-55
2023/04/23 08:29:35;;;;;;;3.08;1.80;;;14.70;67.80;;;17.60;46.31;96981.06;5058253;28;20053;-55
2023/04/23 08:32:02;;;;;;;2.40;1.92;;;14.60;68.90;;;17.52;46.40;96971.41;5060090;28;20045;-56
2023/04/23 08:34:30;;;;;;;2.40;2.10;;;14.50;69.40;;;17.52;46.81;96971.41;5068078;28;20497;-56
2023/04/23 08:36:57;;;;;;;2.08;1.40;;;14.60;69.40;;;17.53;46.68;96972.22;5067161;28;20044;-56
2023/04/23 08:39:26;;;;;;;2.83;1.52;;;14.60;69.00;;;17.54;46.82;96976.56;5064623;28;20112;-57
2023/04/23 08:41:55;;;;;;;2.22;1.70;;;14.80;69.00;;;17.57;46.92;96975.31;5064721;28;20041;-58
2023/04/23 08:44:25;;;;;;;2.70;1.83;;;14.80;69.00;;;17.68;46.22;96975.41;5064369;28;20441;-56
2023/04/23 08:46:53;;;;;;;2.53;1.85;;;15.00;67.40;;;17.76;46.35;96973.44;5064009;28;20040;-57
2023/04/23 08:49:21;;;;;;;2.88;2.03;;;15.10;67.90;;;17.89;45.79;96968.78;5057758;28;20041;-57
2023/04/23 08:51:52;;;;;;;3.53;1.63;;;15.30;66.60;;;18.00;45.41;96967.19;5065405;28;20036;-57
2023/04/23 08:54:27;;;;;;;1.73;1.48;;;15.40;65.50;;;18.06;44.88;96966.28;5057418;28;20040;-57
2023/04/23 08:56:59;;;;;;;2.90;1.67;;;15.50;64.00;;;18.15;44.94;96969.53;5064942;28;20044;-56
2023/04/23 08:59:33;;;;;;;2.00;1.80;;;15.60;64.20;;;18.25;44.98;96964.41;5068803;28;20413;-55
2023/04/23 09:02:06;;;;;;;2.40;1.95;;;15.60;64.00;;;18.35;45.17;96961.19;5067831;28;20394;-56
2023/04/23 09:04:35;;;;;;;2.83;2.20;;;15.70;65.00;;;18.44;44.86;96961.69;5065303;28;20064;-57
2023/04/23 09:07:06;;;;;;;2.22;1.65;;;15.70;64.60;;;18.42;43.75;96961.09;5065973;28;20470;-57
2023/04/23 09:09:35;;;;;;;2.97;1.77;;;15.60;62.50;;;18.41;43.57;96960.25;5068712;28;20045;-58
2023/04/23 09:12:05;;;;;;;3.90;2.42;;;15.60;62.90;;;18.46;43.86;96957.72;5066106;28;20044;-57
2023/04/23 09:14:34;;;;;;;3.97;2.60;;;15.60;62.90;;;18.51;44.01;96957.03;5064034;28;20059;-58
2023/04/23 09:17:02;;;;;;;3.60;2.10;;;15.70;63.20;;;18.57;44.06;96949.91;5065997;28;20068;-58
2023/04/23 09:19:30;;;;;;;3.10;2.70;;;15.80;63.30;;;18.64;44.00;96954.16;5050868;28;20044;-57
2023/04/23 09:22:00;;;;;;;2.83;1.90;;;15.90;63.30;;;18.73;43.74;96941.19;5066726;28;20051;-56
2023/04/23 09:24:29;;;;;;;3.50;1.75;;;16.00;62.70;;;18.84;43.60;96944.97;5065161;28;20043;-56
2023/04/23 09:26:57;;;;;;;5.75;2.00;;;16.10;62.40;;;18.94;43.54;96934.47;5056535;28;20041;-57
2023/04/23 09:29:25;;;;;;;1.90;1.70;;;16.20;62.40;;;18.99;43.33;96933.75;5046299;28;20063;-55
2023/04/23 09:31:55;;;;;;;4.00;2.38;;;16.30;61.80;;;19.00;43.54;96932.69;5043357;28;20399;-57
2023/04/23 09:34:24;;;;;;;2.40;2.03;;;16.30;61.70;;;19.04;43.25;96933.88;5037885;28;20497;-57
2023/04/23 09:36:52;;;;;;;2.92;2.08;;;16.30;61.60;;;19.07;42.97;96931.53;5040538;28;20052;-57
2023/04/23 09:39:23;;;;;;;2.28;1.77;;;16.30;61.10;;;19.14;42.77;96927.91;5039787;28;20421;-57
2023/04/23 09:41:52;;;;;;;4.72;2.30;;;16.40;60.40;;;19.18;42.75;96908.31;5041334;28;20650;-56
2023/04/23 09:44:21;;;;;;;2.75;2.17;;;16.40;61.50;;;19.19;43.21;96904.56;5037463;28;20528;-57
2023/04/23 09:46:49;;;;;;;2.85;2.25;;;16.40;61.40;;;19.25;42.97;96902.78;5035546;28;20060;-56
2023/04/23 09:49:17;;;;;;;2.65;1.80;;;16.50;61.20;;;19.16;42.80;96910.44;5036316;28;20048;-56
2023/04/23 09:51:47;;;;;;;2.97;1.92;;;16.30;60.70;;;19.16;43.06;96904.22;5035769;28;20049;-54
2023/04/23 09:54:21;;;;;;;2.65;1.98;;;16.40;61.60;;;19.22;43.19;96903.28;5036782;28;20051;-57
2023/04/23 09:57:02;;;;;;;3.45;2.20;;;16.50;61.70;;;19.26;43.07;96905.25;5036569;28;20048;-56
2023/04/23 09:59:30;;;;;;;3.65;2.20;;;16.60;61.40;;;19.35;43.10;96902.19;5038413;28;20265;-55
2023/04/23 10:02:17;;;;;;;2.90;2.08;;;16.60;61.40;;;19.40;42.77;96900.44;5037743;28;20422;-57
2023/04/23 10:04:50;;;;;;;2.38;2.10;;;16.60;60.20;;;19.34;42.63;96884.38;5037503;28;20044;-56
2023/04/23 10:07:21;;;;;;;2.97;2.30;;;16.60;60.60;;;19.32;42.99;96886.50;5039624;28;20410;-57
2023/04/23 10:09:49;;;;;;;3.47;1.73;;;16.60;61.30;;;19.31;43.13;96882.16;5044491;28;20466;-55
2023/04/23 10:12:18;;;;;;;2.03;1.75;;;16.60;61.40;;;19.33;42.89;96875.47;5041438;28;20055;-55
2023/04/23 10:15:08;;;;;;;2.78;1.88;;;16.70;61.00;;;19.37;42.78;96875.81;5043812;28;20053;-54
2023/04/23 10:17:36;;;;;;;3.13;1.85;;;16.70;60.20;;;19.38;42.55;96869.34;5041960;28;20061;-60
2023/04/23 10:20:09;;;;;;;3.65;2.67;;;16.60;60.80;;;19.38;42.73;96872.06;5032040;28;20045;-56
2023/04/23 10:22:38;;;;;;;2.38;1.67;;;16.70;60.80;;;19.40;42.97;96873.47;5032683;28;20416;-52
2023/04/23 10:25:10;;;;;;;2.35;1.95;;;16.80;60.80;;;19.39;42.95;96869.13;5031299;28;20052;-50
2023/04/23 10:27:46;;;;;;;2.63;1.85;;;16.70;60.80;;;19.39;42.92;96871.84;5031409;28;20057;-47